sensor_id;sensor_type;location;lat;lon;timestamp;P1;durP1;ratioP1;P2;durP2;ratioP2
38034;SDS011;23841;48.524;1.342;2022-11-15T00:01:36;3.15;;;2.10;;
38034;SDS011;23841;48.524;1.342;2022-11-15T00:04:05;5.80;;;1.30;;
38034;SDS011;23841;48.524;1.342;2022-11-15T00:06:30;4.85;;;1.85;;
38034;SDS011;23841;48.524;1.342;2022-11-15T00:08:59;4.00;;;1.50;;
38034;SDS011;23841;48.524;1.342;2022-11-15T00:11:25;4.63;;;1.70;;
38034;SDS011;23841;48.524;1.342;2022-11-15T00:13:50;4.25;;;1.55;;
38034;SDS011;23841;48.524;1.342;2022-11-15T00:16:15;5.90;;;1.77;;
38034;SDS011;23841;48.524;1.342;2022-11-15T00:18:41;6.03;;;1.50;;
38034;SDS011;23841;48.524;1.342;2022-11-15T00:21:07;4.70;;;1.63;;
38034;SDS011;23841;48.524;1.342;2022-11-15T00:23:34;6.22;;;1.77;;
38034;SDS011;23841;48.524;1.342;2022-11-15T00:25:59;5.68;;;1.50;;
38034;SDS011;23841;48.524;1.342;2022-11-15T00:28:25;7.10;;;2.03;;
38034;SDS011;23841;48.524;1.342;2022-11-15T00:30:50;8.45;;;2.05;;
38034;SDS011;23841;48.524;1.342;2022-11-15T00:33:16;4.03;;;1.50;;
38034;SDS011;23841;48.524;1.342;2022-11-15T00:35:41;5.40;;;1.58;;
38034;SDS011;23841;48.524;1.342;2022-11-15T00:38:06;2.80;;;1.45;;
38034;SDS011;23841;48.524;1.342;2022-11-15T00:40:32;2.80;;;1.58;;
38034;SDS011;23841;48.524;1.342;2022-11-15T00:42:57;3.60;;;1.58;;
38034;SDS011;23841;48.524;1.342;2022-11-15T00:45:23;5.82;;;1.90;;
38034;SDS011;23841;48.524;1.342;2022-11-15T00:47:48;3.67;;;1.60;;
38034;SDS011;23841;48.524;1.342;2022-11-15T00:50:13;5.75;;;1.90;;
38034;SDS011;23841;48.524;1.342;2022-11-15T00:52:39;6.57;;;1.88;;
38034;SDS011;23841;48.524;1.342;2022-11-15T00:55:04;5.65;;;1.80;;
38034;SDS011;23841;48.524;1.342;2022-11-15T00:57:30;3.78;;;1.55;;
38034;SDS011;23841;48.524;1.342;2022-11-15T00:59:55;5.53;;;1.80;;
38034;SDS011;23841;48.524;1.342;2022-11-15T01:02:20;5.40;;;1.83;;
38034;SDS011;23841;48.524;1.342;2022-11-15T01:04:45;7.03;;;1.95;;
38034;SDS011;23841;48.524;1.342;2022-11-15T01:07:11;6.00;;;1.80;;
38034;SDS011;23841;48.524;1.342;2022-11-15T01:09:36;8.23;;;1.92;;
38034;SDS011;23841;48.524;1.342;2022-11-15T01:12:01;4.85;;;1.55;;
38034;SDS011;23841;48.524;1.342;2022-11-15T01:14:27;5.55;;;1.50;;
38034;SDS011;23841;48.524;1.342;2022-11-15T01:16:52;5.82;;;1.48;;
38034;SDS011;23841;48.524;1.342;2022-11-15T01:19:18;6.10;;;1.45;;
38034;SDS011;23841;48.524;1.342;2022-11-15T01:21:43;4.75;;;1.77;;
38034;SDS011;23841;48.524;1.342;2022-11-15T01:24:10;7.82;;;1.75;;
38034;SDS011;23841;48.524;1.342;2022-11-15T01:26:38;5.78;;;1.83;;
38034;SDS011;23841;48.524;1.342;2022-11-15T01:29:04;5.03;;;1.42;;
38034;SDS011;23841;48.524;1.342;2022-11-15T01:31:29;6.90;;;1.67;;
38034;SDS011;23841;48.524;1.342;2022-11-15T01:33:55;4.85;;;1.90;;
38034;SDS011;23841;48.524;1.342;2022-11-15T01:36:21;5.63;;;1.45;;
38034;SDS011;23841;48.524;1.342;2022-11-15T01:38:55;6.15;;;1.70;;
38034;SDS011;23841;48.524;1.342;2022-11-15T01:41:22;7.22;;;1.45;;
38034;SDS011;23841;48.524;1.342;2022-11-15T01:43:52;7.75;;;1.50;;
38034;SDS011;23841;48.524;1.342;2022-11-15T01:46:25;3.97;;;1.30;;
38034;SDS011;23841;48.524;1.342;2022-11-15T01:48:52;4.38;;;1.73;;
38034;SDS011;23841;48.524;1.342;2022-11-15T01:51:18;5.70;;;1.70;;
38034;SDS011;23841;48.524;1.342;2022-11-15T01:53:45;6.45;;;1.45;;
38034;SDS011;23841;48.524;1.342;2022-11-15T01:56:13;7.00;;;1.60;;
38034;SDS011;23841;48.524;1.342;2022-11-15T01:58:40;4.45;;;1.27;;
38034;SDS011;23841;48.524;1.342;2022-11-15T02:01:06;5.72;;;1.30;;
38034;SDS011;23841;48.524;1.342;2022-11-15T02:03:39;5.35;;;1.60;;
38034;SDS011;23841;48.524;1.342;2022-11-15T02:06:06;7.38;;;1.48;;
38034;SDS011;23841;48.524;1.342;2022-11-15T02:08:32;4.47;;;1.42;;
38034;SDS011;23841;48.524;1.342;2022-11-15T02:10:57;7.93;;;2.08;;
38034;SDS011;23841;48.524;1.342;2022-11-15T02:13:23;4.72;;;1.15;;
38034;SDS011;23841;48.524;1.342;2022-11-15T02:15:52;4.15;;;1.38;;
38034;SDS011;23841;48.524;1.342;2022-11-15T02:18:24;6.65;;;1.65;;
38034;SDS011;23841;48.524;1.342;2022-11-15T02:23:24;3.63;;;1.20;;
38034;SDS011;23841;48.524;1.342;2022-11-15T02:26:02;6.00;;;1.45;;
38034;SDS011;23841;48.524;1.342;2022-11-15T02:33:42;4.57;;;1.45;;
38034;SDS011;23841;48.524;1.342;2022-11-15T02:36:15;6.00;;;1.52;;
38034;SDS011;23841;48.524;1.342;2022-11-15T02:38:47;6.85;;;1.73;;
38034;SDS011;23841;48.524;1.342;2022-11-15T02:41:20;7.32;;;1.70;;
38034;SDS011;23841;48.524;1.342;2022-11-15T02:44:00;5.85;;;1.52;;
38034;SDS011;23841;48.524;1.342;2022-11-15T02:46:49;5.07;;;1.35;;
38034;SDS011;23841;48.524;1.342;2022-11-15T02:49:31;4.55;;;1.48;;
38034;SDS011;23841;48.524;1.342;2022-11-15T02:51:57;7.05;;;1.55;;
38034;SDS011;23841;48.524;1.342;2022-11-15T02:54:23;4.10;;;1.48;;
38034;SDS011;23841;48.524;1.342;2022-11-15T02:56:49;6.07;;;1.30;;
38034;SDS011;23841;48.524;1.342;2022-11-15T03:09:38;5.28;;;1.80;;
38034;SDS011;23841;48.524;1.342;2022-11-15T03:12:10;3.40;;;1.40;;
38034;SDS011;23841;48.524;1.342;2022-11-15T03:14:40;5.28;;;2.00;;
38034;SDS011;23841;48.524;1.342;2022-11-15T03:19:47;4.45;;;1.50;;
38034;SDS011;23841;48.524;1.342;2022-11-15T03:22:16;8.30;;;1.63;;
38034;SDS011;23841;48.524;1.342;2022-11-15T03:24:43;5.45;;;1.50;;
38034;SDS011;23841;48.524;1.342;2022-11-15T03:27:09;3.30;;;1.30;;
38034;SDS011;23841;48.524;1.342;2022-11-15T03:29:39;4.05;;;1.52;;
38034;SDS011;23841;48.524;1.342;2022-11-15T03:32:11;5.15;;;1.70;;
38034;SDS011;23841;48.524;1.342;2022-11-15T03:34:39;8.95;;;2.30;;
38034;SDS011;23841;48.524;1.342;2022-11-15T03:37:06;4.85;;;1.60;;
38034;SDS011;23841;48.524;1.342;2022-11-15T03:39:32;6.18;;;1.55;;
38034;SDS011;23841;48.524;1.342;2022-11-15T03:47:00;5.57;;;1.60;;
38034;SDS011;23841;48.524;1.342;2022-11-15T03:49:28;6.75;;;2.13;;
38034;SDS011;23841;48.524;1.342;2022-11-15T03:51:56;5.00;;;1.50;;
38034;SDS011;23841;48.524;1.342;2022-11-15T03:54:21;4.15;;;1.77;;
38034;SDS011;23841;48.524;1.342;2022-11-15T03:56:46;6.32;;;1.40;;
38034;SDS011;23841;48.524;1.342;2022-11-15T03:59:12;5.50;;;1.70;;
38034;SDS011;23841;48.524;1.342;2022-11-15T04:01:37;6.70;;;1.63;;
38034;SDS011;23841;48.524;1.342;2022-11-15T04:04:02;4.68;;;1.60;;
38034;SDS011;23841;48.524;1.342;2022-11-15T04:06:28;6.57;;;1.60;;
38034;SDS011;23841;48.524;1.342;2022-11-15T04:08:53;5.60;;;1.40;;
38034;SDS011;23841;48.524;1.342;2022-11-15T04:11:18;5.82;;;1.65;;
38034;SDS011;23841;48.524;1.342;2022-11-15T04:13:43;5.32;;;2.25;;
38034;SDS011;23841;48.524;1.342;2022-11-15T04:16:09;5.75;;;1.40;;
38034;SDS011;23841;48.524;1.342;2022-11-15T04:18:34;6.03;;;1.60;;
38034;SDS011;23841;48.524;1.342;2022-11-15T04:20:59;4.28;;;1.48;;
38034;SDS011;23841;48.524;1.342;2022-11-15T04:23:43;5.72;;;2.10;;
38034;SDS011;23841;48.524;1.342;2022-11-15T04:26:27;10.10;;;2.55;;
38034;SDS011;23841;48.524;1.342;2022-11-15T04:28:52;5.40;;;1.52;;
38034;SDS011;23841;48.524;1.342;2022-11-15T04:31:36;5.18;;;1.40;;
38034;SDS011;23841;48.524;1.342;2022-11-15T04:34:01;6.53;;;1.30;;
38034;SDS011;23841;48.524;1.342;2022-11-15T04:36:26;3.28;;;1.25;;
38034;SDS011;23841;48.524;1.342;2022-11-15T04:39:10;5.82;;;1.70;;
38034;SDS011;23841;48.524;1.342;2022-11-15T04:41:35;5.43;;;1.40;;
38034;SDS011;23841;48.524;1.342;2022-11-15T04:44:01;3.88;;;1.20;;
38034;SDS011;23841;48.524;1.342;2022-11-15T04:46:26;4.60;;;1.30;;
38034;SDS011;23841;48.524;1.342;2022-11-15T04:48:52;5.47;;;1.25;;
38034;SDS011;23841;48.524;1.342;2022-11-15T04:51:17;3.90;;;1.65;;
38034;SDS011;23841;48.524;1.342;2022-11-15T04:53:42;4.25;;;1.70;;
38034;SDS011;23841;48.524;1.342;2022-11-15T04:56:08;6.45;;;1.33;;
38034;SDS011;23841;48.524;1.342;2022-11-15T04:58:33;4.72;;;1.20;;
38034;SDS011;23841;48.524;1.342;2022-11-15T05:01:05;4.60;;;1.05;;
38034;SDS011;23841;48.524;1.342;2022-11-15T05:03:31;5.75;;;1.40;;
38034;SDS011;23841;48.524;1.342;2022-11-15T05:06:15;6.07;;;1.50;;
38034;SDS011;23841;48.524;1.342;2022-11-15T05:08:40;4.97;;;1.13;;
38034;SDS011;23841;48.524;1.342;2022-11-15T05:11:05;5.68;;;1.20;;
38034;SDS011;23841;48.524;1.342;2022-11-15T05:13:30;3.72;;;1.15;;
38034;SDS011;23841;48.524;1.342;2022-11-15T05:15:56;3.13;;;1.20;;
38034;SDS011;23841;48.524;1.342;2022-11-15T05:18:21;5.93;;;1.23;;
38034;SDS011;23841;48.524;1.342;2022-11-15T05:20:46;6.05;;;1.23;;
38034;SDS011;23841;48.524;1.342;2022-11-15T05:23:12;6.68;;;1.80;;
38034;SDS011;23841;48.524;1.342;2022-11-15T05:25:37;4.80;;;1.70;;
38034;SDS011;23841;48.524;1.342;2022-11-15T05:28:02;5.10;;;1.20;;
38034;SDS011;23841;48.524;1.342;2022-11-15T05:30:28;3.95;;;1.27;;
38034;SDS011;23841;48.524;1.342;2022-11-15T05:32:53;3.55;;;1.38;;
38034;SDS011;23841;48.524;1.342;2022-11-15T05:35:20;4.95;;;1.85;;
38034;SDS011;23841;48.524;1.342;2022-11-15T05:37:47;4.13;;;1.17;;
38034;SDS011;23841;48.524;1.342;2022-11-15T05:40:12;2.72;;;1.05;;
38034;SDS011;23841;48.524;1.342;2022-11-15T05:42:38;4.68;;;1.48;;
38034;SDS011;23841;48.524;1.342;2022-11-15T05:45:04;4.32;;;1.42;;
38034;SDS011;23841;48.524;1.342;2022-11-15T05:47:30;3.90;;;1.30;;
38034;SDS011;23841;48.524;1.342;2022-11-15T05:49:55;4.45;;;1.30;;
38034;SDS011;23841;48.524;1.342;2022-11-15T05:52:22;4.90;;;1.60;;
38034;SDS011;23841;48.524;1.342;2022-11-15T05:54:49;4.75;;;1.30;;
38034;SDS011;23841;48.524;1.342;2022-11-15T05:57:14;2.67;;;1.30;;
38034;SDS011;23841;48.524;1.342;2022-11-15T05:59:40;2.53;;;0.98;;
38034;SDS011;23841;48.524;1.342;2022-11-15T06:02:06;2.95;;;1.20;;
38034;SDS011;23841;48.524;1.342;2022-11-15T06:04:31;7.93;;;1.42;;
38034;SDS011;23841;48.524;1.342;2022-11-15T06:06:57;4.35;;;1.10;;
38034;SDS011;23841;48.524;1.342;2022-11-15T06:09:23;7.13;;;1.48;;
38034;SDS011;23841;48.524;1.342;2022-11-15T06:11:48;5.68;;;1.25;;
38034;SDS011;23841;48.524;1.342;2022-11-15T06:14:13;4.03;;;1.15;;
38034;SDS011;23841;48.524;1.342;2022-11-15T06:16:38;9.02;;;1.50;;
38034;SDS011;23841;48.524;1.342;2022-11-15T06:19:05;2.95;;;1.20;;
38034;SDS011;23841;48.524;1.342;2022-11-15T06:21:30;4.53;;;1.27;;
38034;SDS011;23841;48.524;1.342;2022-11-15T06:23:55;6.82;;;1.90;;
38034;SDS011;23841;48.524;1.342;2022-11-15T06:26:21;5.45;;;1.58;;
38034;SDS011;23841;48.524;1.342;2022-11-15T06:28:46;3.05;;;1.00;;
38034;SDS011;23841;48.524;1.342;2022-11-15T06:31:11;4.03;;;1.40;;
38034;SDS011;23841;48.524;1.342;2022-11-15T06:33:37;4.45;;;1.40;;
38034;SDS011;23841;48.524;1.342;2022-11-15T06:36:04;3.78;;;1.15;;
38034;SDS011;23841;48.524;1.342;2022-11-15T06:38:29;7.22;;;1.42;;
38034;SDS011;23841;48.524;1.342;2022-11-15T06:40:55;7.28;;;1.48;;
38034;SDS011;23841;48.524;1.342;2022-11-15T06:43:20;2.78;;;1.05;;
38034;SDS011;23841;48.524;1.342;2022-11-15T06:45:45;4.28;;;1.63;;
38034;SDS011;23841;48.524;1.342;2022-11-15T06:48:11;3.67;;;1.17;;
38034;SDS011;23841;48.524;1.342;2022-11-15T06:50:36;4.43;;;1.77;;
38034;SDS011;23841;48.524;1.342;2022-11-15T06:53:02;6.05;;;1.58;;
38034;SDS011;23841;48.524;1.342;2022-11-15T06:55:28;6.25;;;1.52;;
38034;SDS011;23841;48.524;1.342;2022-11-15T06:57:53;5.88;;;1.52;;
38034;SDS011;23841;48.524;1.342;2022-11-15T07:00:19;5.72;;;1.50;;
38034;SDS011;23841;48.524;1.342;2022-11-15T07:02:45;6.20;;;1.42;;
38034;SDS011;23841;48.524;1.342;2022-11-15T07:05:10;4.53;;;1.27;;
38034;SDS011;23841;48.524;1.342;2022-11-15T07:07:36;6.75;;;1.52;;
38034;SDS011;23841;48.524;1.342;2022-11-15T07:10:01;4.22;;;1.35;;
38034;SDS011;23841;48.524;1.342;2022-11-15T07:12:26;4.00;;;1.20;;
38034;SDS011;23841;48.524;1.342;2022-11-15T07:14:52;7.35;;;1.52;;
38034;SDS011;23841;48.524;1.342;2022-11-15T07:17:17;3.42;;;1.20;;
38034;SDS011;23841;48.524;1.342;2022-11-15T07:19:42;3.38;;;1.17;;
38034;SDS011;23841;48.524;1.342;2022-11-15T07:22:07;4.95;;;1.40;;
38034;SDS011;23841;48.524;1.342;2022-11-15T07:24:32;4.00;;;1.50;;
38034;SDS011;23841;48.524;1.342;2022-11-15T07:26:58;2.20;;;1.30;;
38034;SDS011;23841;48.524;1.342;2022-11-15T07:29:23;8.77;;;1.92;;
38034;SDS011;23841;48.524;1.342;2022-11-15T07:31:48;5.25;;;1.50;;
38034;SDS011;23841;48.524;1.342;2022-11-15T07:34:14;8.05;;;1.42;;
38034;SDS011;23841;48.524;1.342;2022-11-15T07:36:39;5.65;;;1.55;;
38034;SDS011;23841;48.524;1.342;2022-11-15T07:39:05;3.95;;;1.30;;
38034;SDS011;23841;48.524;1.342;2022-11-15T07:41:30;2.25;;;0.90;;
38034;SDS011;23841;48.524;1.342;2022-11-15T07:43:55;3.75;;;1.33;;
38034;SDS011;23841;48.524;1.342;2022-11-15T07:46:21;3.60;;;1.17;;
38034;SDS011;23841;48.524;1.342;2022-11-15T07:48:46;2.75;;;1.10;;
38034;SDS011;23841;48.524;1.342;2022-11-15T07:51:12;5.30;;;1.40;;
38034;SDS011;23841;48.524;1.342;2022-11-15T07:53:38;4.50;;;1.30;;
38034;SDS011;23841;48.524;1.342;2022-11-15T07:56:05;4.05;;;1.45;;
38034;SDS011;23841;48.524;1.342;2022-11-15T07:58:31;5.65;;;1.70;;
38034;SDS011;23841;48.524;1.342;2022-11-15T08:00:56;4.20;;;1.40;;
38034;SDS011;23841;48.524;1.342;2022-11-15T08:03:21;5.78;;;1.52;;
38034;SDS011;23841;48.524;1.342;2022-11-15T08:05:49;3.67;;;1.50;;
38034;SDS011;23841;48.524;1.342;2022-11-15T08:08:15;5.13;;;1.20;;
38034;SDS011;23841;48.524;1.342;2022-11-15T08:10:40;5.55;;;1.60;;
38034;SDS011;23841;48.524;1.342;2022-11-15T08:13:07;7.18;;;1.70;;
38034;SDS011;23841;48.524;1.342;2022-11-15T08:15:32;4.28;;;1.20;;
38034;SDS011;23841;48.524;1.342;2022-11-15T08:17:59;7.30;;;1.58;;
38034;SDS011;23841;48.524;1.342;2022-11-15T08:20:25;4.32;;;1.42;;
38034;SDS011;23841;48.524;1.342;2022-11-15T08:22:51;4.63;;;1.20;;
38034;SDS011;23841;48.524;1.342;2022-11-15T08:25:16;3.13;;;1.30;;
38034;SDS011;23841;48.524;1.342;2022-11-15T08:27:42;3.58;;;1.20;;
38034;SDS011;23841;48.524;1.342;2022-11-15T08:30:07;7.00;;;2.17;;
38034;SDS011;23841;48.524;1.342;2022-11-15T08:32:33;4.75;;;1.30;;
38034;SDS011;23841;48.524;1.342;2022-11-15T08:34:58;4.95;;;1.90;;
38034;SDS011;23841;48.524;1.342;2022-11-15T08:37:23;7.10;;;1.60;;
38034;SDS011;23841;48.524;1.342;2022-11-15T08:39:48;4.32;;;1.45;;
38034;SDS011;23841;48.524;1.342;2022-11-15T08:42:14;3.47;;;1.23;;
38034;SDS011;23841;48.524;1.342;2022-11-15T08:44:41;3.17;;;1.30;;
38034;SDS011;23841;48.524;1.342;2022-11-15T08:47:06;5.57;;;1.20;;
38034;SDS011;23841;48.524;1.342;2022-11-15T08:49:31;3.72;;;1.38;;
38034;SDS011;23841;48.524;1.342;2022-11-15T08:51:57;4.65;;;1.40;;
38034;SDS011;23841;48.524;1.342;2022-11-15T08:54:22;4.80;;;1.52;;
38034;SDS011;23841;48.524;1.342;2022-11-15T08:56:47;2.65;;;1.27;;
38034;SDS011;23841;48.524;1.342;2022-11-15T08:59:12;5.35;;;1.85;;
38034;SDS011;23841;48.524;1.342;2022-11-15T09:01:38;4.63;;;1.23;;
38034;SDS011;23841;48.524;1.342;2022-11-15T09:04:03;4.35;;;1.45;;
38034;SDS011;23841;48.524;1.342;2022-11-15T09:06:29;6.47;;;1.50;;
38034;SDS011;23841;48.524;1.342;2022-11-15T09:08:54;4.10;;;1.30;;
38034;SDS011;23841;48.524;1.342;2022-11-15T09:11:19;6.43;;;1.42;;
38034;SDS011;23841;48.524;1.342;2022-11-15T09:13:46;6.78;;;1.65;;
38034;SDS011;23841;48.524;1.342;2022-11-15T09:16:12;2.80;;;1.23;;
38034;SDS011;23841;48.524;1.342;2022-11-15T09:18:37;4.22;;;1.40;;
38034;SDS011;23841;48.524;1.342;2022-11-15T09:21:03;6.22;;;1.48;;
38034;SDS011;23841;48.524;1.342;2022-11-15T09:23:29;3.63;;;1.20;;
38034;SDS011;23841;48.524;1.342;2022-11-15T09:25:58;5.70;;;1.20;;
38034;SDS011;23841;48.524;1.342;2022-11-15T09:28:25;3.70;;;1.50;;
38034;SDS011;23841;48.524;1.342;2022-11-15T09:30:50;5.53;;;1.52;;
38034;SDS011;23841;48.524;1.342;2022-11-15T09:33:15;4.20;;;1.30;;
38034;SDS011;23841;48.524;1.342;2022-11-15T09:35:40;6.82;;;1.50;;
38034;SDS011;23841;48.524;1.342;2022-11-15T09:38:06;4.78;;;1.17;;
38034;SDS011;23841;48.524;1.342;2022-11-15T09:40:31;5.28;;;1.70;;
38034;SDS011;23841;48.524;1.342;2022-11-15T09:45:31;5.22;;;1.38;;
38034;SDS011;23841;48.524;1.342;2022-11-15T09:50:50;3.40;;;1.30;;
38034;SDS011;23841;48.524;1.342;2022-11-15T09:53:22;3.92;;;1.40;;
38034;SDS011;23841;48.524;1.342;2022-11-15T09:56:01;4.57;;;1.27;;
38034;SDS011;23841;48.524;1.342;2022-11-15T10:00:51;4.45;;;1.20;;
38034;SDS011;23841;48.524;1.342;2022-11-15T10:05:50;4.00;;;1.38;;
38034;SDS011;23841;48.524;1.342;2022-11-15T10:10:47;4.22;;;1.30;;
38034;SDS011;23841;48.524;1.342;2022-11-15T10:13:24;5.05;;;1.10;;
38034;SDS011;23841;48.524;1.342;2022-11-15T10:20:48;3.92;;;1.95;;
38034;SDS011;23841;48.524;1.342;2022-11-15T10:23:15;4.05;;;1.00;;
38034;SDS011;23841;48.524;1.342;2022-11-15T10:25:41;3.83;;;1.10;;
38034;SDS011;23841;48.524;1.342;2022-11-15T10:28:13;5.43;;;1.20;;
38034;SDS011;23841;48.524;1.342;2022-11-15T10:30:40;3.33;;;1.13;;
38034;SDS011;23841;48.524;1.342;2022-11-15T10:35:57;5.63;;;1.52;;
38034;SDS011;23841;48.524;1.342;2022-11-15T10:41:17;1.38;;;0.90;;
38034;SDS011;23841;48.524;1.342;2022-11-15T10:43:45;3.58;;;1.35;;
38034;SDS011;23841;48.524;1.342;2022-11-15T10:46:26;3.03;;;1.15;;
38034;SDS011;23841;48.524;1.342;2022-11-15T10:48:51;3.47;;;1.02;;
38034;SDS011;23841;48.524;1.342;2022-11-15T10:51:20;3.60;;;1.13;;
38034;SDS011;23841;48.524;1.342;2022-11-15T10:53:47;3.58;;;0.98;;
38034;SDS011;23841;48.524;1.342;2022-11-15T10:56:13;3.50;;;1.20;;
38034;SDS011;23841;48.524;1.342;2022-11-15T11:01:13;2.67;;;1.10;;
38034;SDS011;23841;48.524;1.342;2022-11-15T11:03:41;3.97;;;1.30;;
38034;SDS011;23841;48.524;1.342;2022-11-15T11:08:33;3.20;;;1.30;;
38034;SDS011;23841;48.524;1.342;2022-11-15T11:10:59;2.78;;;1.40;;
38034;SDS011;23841;48.524;1.342;2022-11-15T11:13:28;3.70;;;1.20;;
38034;SDS011;23841;48.524;1.342;2022-11-15T11:18:22;5.78;;;1.48;;
38034;SDS011;23841;48.524;1.342;2022-11-15T11:20:55;4.25;;;1.40;;
38034;SDS011;23841;48.524;1.342;2022-11-15T11:26:12;3.60;;;1.27;;
38034;SDS011;23841;48.524;1.342;2022-11-15T11:33:42;3.70;;;1.30;;
38034;SDS011;23841;48.524;1.342;2022-11-15T11:36:53;2.97;;;1.38;;
38034;SDS011;23841;48.524;1.342;2022-11-15T11:49:10;2.30;;;1.20;;
38034;SDS011;23841;48.524;1.342;2022-11-15T11:52:10;4.10;;;1.60;;
38034;SDS011;23841;48.524;1.342;2022-11-15T11:57:02;4.68;;;1.20;;
38034;SDS011;23841;48.524;1.342;2022-11-15T11:59:51;2.55;;;1.20;;
38034;SDS011;23841;48.524;1.342;2022-11-15T12:02:28;4.75;;;1.38;;
38034;SDS011;23841;48.524;1.342;2022-11-15T12:04:57;3.58;;;1.40;;
38034;SDS011;23841;48.524;1.342;2022-11-15T12:07:32;2.17;;;1.23;;
38034;SDS011;23841;48.524;1.342;2022-11-15T12:09:59;3.58;;;1.40;;
38034;SDS011;23841;48.524;1.342;2022-11-15T12:15:14;5.18;;;1.20;;
38034;SDS011;23841;48.524;1.342;2022-11-15T12:17:40;2.35;;;1.27;;
38034;SDS011;23841;48.524;1.342;2022-11-15T12:20:13;3.13;;;1.23;;
38034;SDS011;23841;48.524;1.342;2022-11-15T12:25:13;4.10;;;1.48;;
38034;SDS011;23841;48.524;1.342;2022-11-15T12:30:41;2.38;;;1.33;;
38034;SDS011;23841;48.524;1.342;2022-11-15T12:32:58;2.58;;;1.17;;
38034;SDS011;23841;48.524;1.342;2022-11-15T12:35:26;1.95;;;1.27;;
38034;SDS011;23841;48.524;1.342;2022-11-15T12:37:54;2.60;;;1.10;;
38034;SDS011;23841;48.524;1.342;2022-11-15T12:43:01;4.72;;;1.50;;
38034;SDS011;23841;48.524;1.342;2022-11-15T12:45:29;3.38;;;1.33;;
38034;SDS011;23841;48.524;1.342;2022-11-15T12:48:46;3.65;;;1.45;;
38034;SDS011;23841;48.524;1.342;2022-11-15T12:50:57;3.95;;;1.40;;
38034;SDS011;23841;48.524;1.342;2022-11-15T13:06:54;2.40;;;1.17;;
38034;SDS011;23841;48.524;1.342;2022-11-15T13:11:57;3.60;;;1.27;;
38034;SDS011;23841;48.524;1.342;2022-11-15T13:17:00;3.15;;;0.93;;
38034;SDS011;23841;48.524;1.342;2022-11-15T13:19:25;3.10;;;1.10;;
38034;SDS011;23841;48.524;1.342;2022-11-15T13:21:51;2.38;;;1.20;;
38034;SDS011;23841;48.524;1.342;2022-11-15T13:24:37;2.97;;;1.20;;
38034;SDS011;23841;48.524;1.342;2022-11-15T13:27:10;1.75;;;1.02;;
38034;SDS011;23841;48.524;1.342;2022-11-15T13:29:36;1.75;;;0.90;;
38034;SDS011;23841;48.524;1.342;2022-11-15T13:32:01;3.85;;;1.15;;
38034;SDS011;23841;48.524;1.342;2022-11-15T13:34:29;3.58;;;1.38;;
38034;SDS011;23841;48.524;1.342;2022-11-15T13:36:58;2.45;;;1.13;;
38034;SDS011;23841;48.524;1.342;2022-11-15T13:41:52;2.53;;;1.20;;
38034;SDS011;23841;48.524;1.342;2022-11-15T13:44:21;2.47;;;1.30;;
38034;SDS011;23841;48.524;1.342;2022-11-15T13:46:47;2.53;;;1.33;;
38034;SDS011;23841;48.524;1.342;2022-11-15T13:49:15;2.13;;;1.15;;
38034;SDS011;23841;48.524;1.342;2022-11-15T13:56:32;5.07;;;1.75;;
38034;SDS011;23841;48.524;1.342;2022-11-15T13:58:59;2.42;;;1.25;;
38034;SDS011;23841;48.524;1.342;2022-11-15T14:01:24;2.78;;;1.30;;
38034;SDS011;23841;48.524;1.342;2022-11-15T14:06:18;4.20;;;1.40;;
38034;SDS011;23841;48.524;1.342;2022-11-15T14:08:59;3.80;;;1.67;;
38034;SDS011;23841;48.524;1.342;2022-11-15T14:11:25;3.17;;;1.40;;
38034;SDS011;23841;48.524;1.342;2022-11-15T14:16:32;2.22;;;1.45;;
38034;SDS011;23841;48.524;1.342;2022-11-15T14:18:57;4.65;;;1.42;;
38034;SDS011;23841;48.524;1.342;2022-11-15T14:21:22;4.93;;;1.38;;
38034;SDS011;23841;48.524;1.342;2022-11-15T14:23:48;3.45;;;1.40;;
38034;SDS011;23841;48.524;1.342;2022-11-15T14:28:52;4.10;;;1.58;;
38034;SDS011;23841;48.524;1.342;2022-11-15T14:31:17;3.28;;;1.70;;
38034;SDS011;23841;48.524;1.342;2022-11-15T14:33:43;5.40;;;1.90;;
38034;SDS011;23841;48.524;1.342;2022-11-15T14:38:36;2.28;;;1.55;;
38034;SDS011;23841;48.524;1.342;2022-11-15T14:41:02;3.20;;;1.75;;
38034;SDS011;23841;48.524;1.342;2022-11-15T14:43:27;3.92;;;1.73;;
38034;SDS011;23841;48.524;1.342;2022-11-15T14:45:52;3.35;;;1.70;;
38034;SDS011;23841;48.524;1.342;2022-11-15T14:48:18;4.57;;;1.88;;
38034;SDS011;23841;48.524;1.342;2022-11-15T14:50:43;6.13;;;1.95;;
38034;SDS011;23841;48.524;1.342;2022-11-15T14:53:12;2.85;;;1.75;;
38034;SDS011;23841;48.524;1.342;2022-11-15T14:55:38;3.53;;;1.52;;
38034;SDS011;23841;48.524;1.342;2022-11-15T14:58:04;4.07;;;1.70;;
38034;SDS011;23841;48.524;1.342;2022-11-15T15:00:31;3.85;;;2.00;;
38034;SDS011;23841;48.524;1.342;2022-11-15T15:02:57;9.45;;;2.30;;
38034;SDS011;23841;48.524;1.342;2022-11-15T15:07:55;14.10;;;2.70;;
38034;SDS011;23841;48.524;1.342;2022-11-15T15:10:20;9.60;;;2.58;;
38034;SDS011;23841;48.524;1.342;2022-11-15T15:12:46;9.35;;;2.85;;
38034;SDS011;23841;48.524;1.342;2022-11-15T15:15:12;21.20;;;3.00;;
38034;SDS011;23841;48.524;1.342;2022-11-15T15:17:38;13.10;;;3.85;;
38034;SDS011;23841;48.524;1.342;2022-11-15T15:20:03;14.73;;;4.75;;
38034;SDS011;23841;48.524;1.342;2022-11-15T15:22:29;9.68;;;3.00;;
38034;SDS011;23841;48.524;1.342;2022-11-15T15:24:55;12.30;;;2.80;;
38034;SDS011;23841;48.524;1.342;2022-11-15T15:27:20;12.80;;;2.90;;
38034;SDS011;23841;48.524;1.342;2022-11-15T15:29:46;10.10;;;3.10;;
38034;SDS011;23841;48.524;1.342;2022-11-15T15:32:11;10.30;;;2.75;;
38034;SDS011;23841;48.524;1.342;2022-11-15T15:34:38;13.05;;;3.63;;
38034;SDS011;23841;48.524;1.342;2022-11-15T15:39:33;11.57;;;3.83;;
38034;SDS011;23841;48.524;1.342;2022-11-15T15:41:59;13.52;;;3.53;;
38034;SDS011;23841;48.524;1.342;2022-11-15T15:44:24;13.23;;;3.50;;
38034;SDS011;23841;48.524;1.342;2022-11-15T15:46:49;14.20;;;3.45;;
38034;SDS011;23841;48.524;1.342;2022-11-15T15:49:15;12.70;;;3.75;;
38034;SDS011;23841;48.524;1.342;2022-11-15T15:51:40;11.05;;;3.33;;
38034;SDS011;23841;48.524;1.342;2022-11-15T15:54:05;9.13;;;3.40;;
38034;SDS011;23841;48.524;1.342;2022-11-15T15:56:30;9.77;;;2.97;;
38034;SDS011;23841;48.524;1.342;2022-11-15T15:58:56;9.32;;;3.33;;
38034;SDS011;23841;48.524;1.342;2022-11-15T16:01:21;7.40;;;2.80;;
38034;SDS011;23841;48.524;1.342;2022-11-15T16:03:46;9.73;;;2.42;;
38034;SDS011;23841;48.524;1.342;2022-11-15T16:08:56;6.68;;;2.28;;
38034;SDS011;23841;48.524;1.342;2022-11-15T16:11:21;4.70;;;2.40;;
38034;SDS011;23841;48.524;1.342;2022-11-15T16:13:46;8.77;;;2.28;;
38034;SDS011;23841;48.524;1.342;2022-11-15T16:16:12;6.10;;;2.15;;
38034;SDS011;23841;48.524;1.342;2022-11-15T16:18:38;4.93;;;2.30;;
38034;SDS011;23841;48.524;1.342;2022-11-15T16:21:03;5.13;;;2.20;;
38034;SDS011;23841;48.524;1.342;2022-11-15T16:23:28;5.30;;;2.53;;
38034;SDS011;23841;48.524;1.342;2022-11-15T16:25:54;3.90;;;2.15;;
38034;SDS011;23841;48.524;1.342;2022-11-15T16:28:26;4.65;;;2.03;;
38034;SDS011;23841;48.524;1.342;2022-11-15T16:31:10;5.75;;;2.00;;
38034;SDS011;23841;48.524;1.342;2022-11-15T16:33:36;5.90;;;2.42;;
38034;SDS011;23841;48.524;1.342;2022-11-15T16:36:02;4.97;;;2.20;;
38034;SDS011;23841;48.524;1.342;2022-11-15T16:38:27;6.07;;;2.00;;
38034;SDS011;23841;48.524;1.342;2022-11-15T16:40:53;6.68;;;2.13;;
38034;SDS011;23841;48.524;1.342;2022-11-15T16:43:18;6.47;;;2.40;;
38034;SDS011;23841;48.524;1.342;2022-11-15T16:45:44;4.93;;;1.98;;
38034;SDS011;23841;48.524;1.342;2022-11-15T16:48:18;5.65;;;2.30;;
38034;SDS011;23841;48.524;1.342;2022-11-15T16:50:44;5.72;;;2.28;;
38034;SDS011;23841;48.524;1.342;2022-11-15T16:53:11;7.47;;;2.13;;
38034;SDS011;23841;48.524;1.342;2022-11-15T16:55:36;3.92;;;2.10;;
38034;SDS011;23841;48.524;1.342;2022-11-15T16:58:02;4.75;;;1.77;;
38034;SDS011;23841;48.524;1.342;2022-11-15T17:00:27;4.97;;;1.98;;